Time;durP1;ratioP1;P1;durP2;ratioP2;P2;SDS_P1;SDS_P2;PMS_P1;PMS_P2;Temp;Humidity;BMP_temperature;BMP_pressure;BME280_temperature;BME280_humidity;BME280_pressure;Samples;Min_cycle;Max_cycle;Signal;HPM_P1;HPM_P2
2022/11/25 00:00:49;;;;;;;15.60;4.43;;;6.10;99.90;;;;;;6306835;22;20385;-87
2022/11/25 00:03:20;;;;;;;19.47;4.50;;;6.50;99.90;;;;;;6182647;23;20021;-88
2022/11/25 00:06:11;;;;;;;15.00;4.73;;;6.50;99.90;;;;;;6156471;23;20017;-88
2022/11/25 00:08:37;;;;;;;18.20;4.37;;;6.30;99.90;;;;;;6156819;23;20508;-88
2022/11/25 00:11:21;;;;;;;13.13;4.17;;;6.20;99.90;;;;;;6157684;23;20052;-88
2022/11/25 00:14:02;;;;;;;15.63;4.07;;;6.10;99.90;;;;;;6181170;23;20017;-88
2022/11/25 00:16:45;;;;;;;14.93;4.47;;;6.40;99.90;;;;;;6157303;23;20021;-88
2022/11/25 00:19:23;;;;;;;17.93;4.53;;;6.90;99.90;;;;;;6181490;23;20036;-88
2022/11/25 00:21:58;;;;;;;14.80;4.27;;;6.20;99.90;;;;;;6157367;23;20021;-88
2022/11/25 00:24:44;;;;;;;15.87;4.27;;;6.00;99.90;;;;;;6157569;23;20009;-88
2022/11/25 00:27:27;;;;;;;16.30;4.20;;;7.10;99.90;;;;;;6181436;23;20091;-88
2022/11/25 00:29:53;;;;;;;14.30;4.33;;;7.00;99.90;;;;;;6181894;23;20024;-88
2022/11/25 00:32:27;;;;;;;15.17;4.33;;;6.40;99.90;;;;;;6181962;23;20016;-89
2022/11/25 00:35:07;;;;;;;;;;;6.50;99.90;;;;;;6296301;22;20373;-88
2022/11/25 00:37:33;;;;;;;14.50;4.37;;;6.30;99.90;;;;;;6307115;22;19910;-88
2022/11/25 00:39:59;;;;;;;18.33;5.10;;;6.20;99.90;;;;;;6306043;22;20063;-88
2022/11/25 00:45:57;;;;;;;18.20;4.90;;;6.10;99.90;;;;;;6306509;22;20081;-88
2022/11/25 00:48:37;;;;;;;16.40;4.97;;;7.60;99.90;;;;;;6278602;22;20023;-88
2022/11/25 00:51:15;;;;;;;18.93;4.30;;;7.20;99.90;;;;;;6307319;22;20064;-88
2022/11/25 00:53:54;;;;;;;15.83;4.23;;;5.80;99.90;;;;;;6283597;22;20019;-88
2022/11/25 00:56:21;;;;;;;16.30;4.40;;;7.60;99.90;;;;;;6283823;22;20371;-88
2022/11/25 00:59:27;;;;;;;15.83;4.47;;;6.50;99.90;;;;;;6279652;22;20094;-88
2022/11/25 01:02:12;;;;;;;17.67;4.60;;;6.50;99.90;;;;;;6279132;22;20045;-89
2022/11/25 01:04:47;;;;;;;13.37;4.47;;;6.00;99.90;;;;;;6284743;22;20038;-88
2022/11/25 01:07:29;;;;;;;16.43;4.47;;;7.80;99.90;;;;;;6279493;22;20019;-87
2022/11/25 01:09:57;;;;;;;;;;;6.90;99.90;;;;;;6279063;22;20087;-88
2022/11/25 01:12:29;;;;;;;17.33;4.60;;;7.00;99.90;;;;;;6279003;22;19991;-87
2022/11/25 01:15:12;;;;;;;19.60;4.60;;;6.10;99.90;;;;;;6306674;22;20011;-88
2022/11/25 01:17:47;;;;;;;19.77;4.50;;;5.50;99.90;;;;;;6279096;22;20310;-88
2022/11/25 01:20:40;;;;;;;16.83;4.60;;;5.40;99.90;;;;;;6280100;22;20030;-88
2022/11/25 01:23:11;;;;;;;15.70;4.47;;;6.40;99.90;;;;;;6277930;22;20106;-88
2022/11/25 01:25:55;;;;;;;19.80;4.37;;;6.10;99.90;;;;;;6307214;22;20521;-88
2022/11/25 01:28:36;;;;;;;18.83;4.20;;;7.00;99.90;;;;;;6279099;22;20015;-88
2022/11/25 01:31:17;;;;;;;16.47;3.83;;;6.50;99.90;;;;;;6278484;22;20019;-88
2022/11/25 01:33:55;;;;;;;15.37;4.10;;;6.40;99.90;;;;;;6278583;22;20015;-88
2022/11/25 01:36:46;;;;;;;18.43;3.90;;;7.00;99.90;;;;;;6277231;22;20074;-87
2022/11/25 01:39:24;;;;;;;18.13;4.17;;;5.50;99.90;;;;;;6283130;22;20023;-88
2022/11/25 01:42:07;;;;;;;15.23;4.07;;;6.10;99.90;;;;;;6308477;22;20011;-88
2022/11/25 01:45:21;;;;;;;14.27;3.63;;;6.80;99.90;;;;;;6280783;22;20490;-88
2022/11/25 01:48:05;;;;;;;17.27;4.30;;;6.30;99.90;;;;;;6281120;22;20033;-88
2022/11/25 01:50:46;;;;;;;16.13;4.20;;;6.70;99.90;;;;;;6279817;22;20023;-88
2022/11/25 01:53:31;;;;;;;16.53;4.20;;;6.30;99.90;;;;;;6280951;22;20073;-88
2022/11/25 01:56:12;;;;;;;14.20;4.23;;;5.20;99.90;;;;;;6308603;22;20328;-88
2022/11/25 01:58:48;;;;;;;16.53;3.80;;;6.00;99.90;;;;;;6279749;22;20019;-88
2022/11/25 02:01:30;;;;;;;18.73;3.87;;;6.60;99.90;;;;;;6281134;22;20015;-88
2022/11/25 02:04:16;;;;;;;19.17;4.00;;;6.20;99.90;;;;;;6308022;22;20375;-87
2022/11/25 02:06:59;;;;;;;15.50;4.00;;;6.00;99.90;;;;;;6307856;22;20447;-87
2022/11/25 02:09:37;;;;;;;15.75;4.55;;;6.20;99.90;;;;;;6280908;22;20015;-87
2022/11/25 02:12:19;;;;;;;20.07;4.30;;;7.30;99.90;;;;;;6279568;22;20092;-87
2022/11/25 02:14:55;;;;;;;14.90;4.10;;;6.60;99.90;;;;;;6280090;22;20015;-88
2022/11/25 02:17:21;;;;;;;20.60;5.15;;;6.30;99.90;;;;;;6309009;22;20011;-89
2022/11/25 02:19:58;;;;;;;18.90;4.57;;;6.50;99.90;;;;;;6280578;22;20078;-88
2022/11/25 02:22:38;;;;;;;21.10;4.57;;;6.50;99.90;;;;;;6291988;22;20023;-89
2022/11/25 02:25:18;;;;;;;19.13;4.87;;;6.50;99.90;;;;;;6303819;22;20023;-89
2022/11/25 02:28:28;;;;;;;19.33;4.80;;;6.60;99.90;;;;;;6307338;22;20016;-89
2022/11/25 02:30:54;;;;;;;19.77;4.73;;;5.10;99.90;;;;;;6308230;22;20011;-90
2022/11/25 02:33:20;;;;;;;21.37;5.40;;;6.60;99.90;;;;;;6285380;22;20141;-89
2022/11/25 02:36:17;;;;;;;18.50;4.80;;;6.70;99.90;;;;;;6279314;22;20427;-89
2022/11/25 02:38:48;;;;;;;15.43;4.63;;;6.50;99.90;;;;;;6275504;22;20015;-89
2022/11/25 02:41:18;;;;;;;19.77;5.30;;;6.50;99.90;;;;;;6313064;22;20019;-90
2022/11/25 02:43:44;;;;;;;21.47;4.80;;;6.40;99.90;;;;;;6280329;22;20049;-90
2022/11/25 02:46:13;;;;;;;21.43;5.13;;;8.10;99.90;;;;;;6280221;22;20015;-89
2022/11/25 02:48:42;;;;;;;20.63;5.80;;;6.20;99.90;;;;;;6280326;22;20023;-89
2022/11/25 02:51:11;;;;;;;22.70;5.27;;;7.00;99.90;;;;;;6279764;22;20011;-89
2022/11/25 02:53:37;;;;;;;20.57;5.10;;;7.70;99.90;;;;;;6279371;22;20015;-88
2022/11/25 02:56:03;;;;;;;20.43;5.43;;;6.80;99.90;;;;;;6280381;22;20020;-89
2022/11/25 02:58:29;;;;;;;20.00;5.30;;;6.40;99.90;;;;;;6280353;22;20093;-88
2022/11/25 03:00:57;;;;;;;23.63;4.97;;;7.20;99.90;;;;;;6279612;22;20019;-88
2022/11/25 03:03:23;;;;;;;20.93;4.80;;;6.90;99.90;;;;;;6306981;22;20050;-88
2022/11/25 03:05:49;;;;;;;18.20;5.07;;;5.80;99.90;;;;;;6307052;22;20011;-88
2022/11/25 03:08:27;;;;;;;17.37;5.60;;;7.00;99.90;;;;;;6305785;22;20066;-88
2022/11/25 03:10:55;;;;;;;21.57;5.57;;;6.30;99.90;;;;;;6281144;22;20007;-88
2022/11/25 03:13:21;;;;;;;20.23;5.77;;;6.30;99.90;;;;;;6308844;22;20035;-88
2022/11/25 03:15:47;;;;;;;18.77;5.50;;;6.50;99.90;;;;;;6278709;22;20023;-88
2022/11/25 03:18:12;;;;;;;22.60;6.00;;;6.00;99.90;;;;;;6280049;22;20015;-88
2022/11/25 03:20:41;;;;;;;23.10;6.17;;;6.50;99.90;;;;;;6280147;22;20020;-88
2022/11/25 03:23:10;;;;;;;20.80;5.90;;;6.30;99.90;;;;;;6278831;22;20104;-88
2022/11/25 03:25:39;;;;;;;24.37;6.03;;;7.30;99.90;;;;;;6307667;22;20026;-88
2022/11/25 03:28:05;;;;;;;21.33;5.80;;;6.20;99.90;;;;;;6311110;22;20505;-87
2022/11/25 03:30:40;;;;;;;21.47;5.97;;;6.40;99.90;;;;;;6278202;22;20019;-87
2022/11/25 03:33:11;;;;;;;19.20;5.83;;;6.90;99.90;;;;;;6307446;22;20026;-87
2022/11/25 03:35:37;;;;;;;19.77;5.77;;;6.10;99.90;;;;;;6273522;22;20053;-87
2022/11/25 03:38:03;;;;;;;20.03;5.47;;;6.50;99.90;;;;;;6274879;22;20019;-87
2022/11/25 03:40:29;;;;;;;18.93;5.60;;;6.30;99.90;;;;;;6273724;22;20087;-87
2022/11/25 03:42:54;;;;;;;21.00;5.97;;;6.20;99.90;;;;;;6274185;22;20091;-87
2022/11/25 03:45:23;;;;;;;17.87;5.47;;;5.90;99.90;;;;;;6275276;22;20412;-87
2022/11/25 03:47:52;;;;;;;25.33;5.90;;;6.10;99.90;;;;;;6275825;22;20098;-87
2022/11/25 03:50:17;;;;;;;20.20;4.93;;;8.00;99.90;;;;;;6274103;22;20061;-88
2022/11/25 03:52:49;;;;;;;20.43;5.30;;;6.50;99.90;;;;;;6274065;22;20388;-87
2022/11/25 03:55:21;;;;;;;22.33;5.60;;;5.90;99.90;;;;;;6276119;22;20313;-87
2022/11/25 03:57:46;;;;;;;24.43;5.57;;;8.10;99.90;;;;;;6272825;22;20062;-87
2022/11/25 04:00:12;;;;;;;24.53;5.77;;;7.30;99.90;;;;;;6274497;22;20016;-87
2022/11/25 04:02:41;;;;;;;24.03;6.37;;;6.30;99.90;;;;;;6275544;22;20023;-87
2022/11/25 04:05:07;;;;;;;23.47;5.87;;;6.70;99.90;;;;;;6274256;22;20023;-87
2022/11/25 04:07:35;;;;;;;23.77;5.70;;;6.50;99.90;;;;;;6275259;22;20026;-87
2022/11/25 04:10:13;;;;;;;23.90;5.73;;;6.40;99.90;;;;;;6284512;22;20090;-87
2022/11/25 04:12:47;;;;;;;21.23;6.17;;;8.00;99.90;;;;;;6279746;22;20019;-88
2022/11/25 04:15:16;;;;;;;19.10;6.27;;;6.70;99.90;;;;;;6307682;22;20016;-87
2022/11/25 04:17:42;;;;;;;25.17;6.23;;;7.60;99.90;;;;;;6284710;22;20065;-87
2022/11/25 04:20:13;;;;;;;18.47;5.43;;;7.70;99.90;;;;;;6281013;22;20019;-87
2022/11/25 04:22:44;;;;;;;18.03;6.10;;;6.50;99.90;;;;;;6279619;22;20019;-87
2022/11/25 04:25:13;;;;;;;19.30;6.33;;;6.20;99.90;;;;;;6279347;22;20461;-87
2022/11/25 04:27:39;;;;;;;23.77;6.10;;;6.20;99.90;;;;;;6306262;22;20480;-87
2022/11/25 04:30:08;;;;;;;19.63;6.40;;;6.20;99.90;;;;;;6306734;22;20145;-87
2022/11/25 04:32:52;;;;;;;26.27;6.43;;;6.10;99.90;;;;;;6305685;22;20022;-87
2022/11/25 04:35:17;;;;;;;24.88;6.25;;;6.10;99.90;;;;;;6279366;22;20391;-87
2022/11/25 04:37:43;;;;;;;23.10;6.00;;;6.30;99.90;;;;;;6311497;22;20026;-87
2022/11/25 04:40:25;;;;;;;23.60;6.73;;;5.50;99.90;;;;;;6314171;22;20015;-87
2022/11/25 04:42:51;;;;;;;23.13;5.70;;;7.20;99.90;;;;;;6306278;22;20019;-87
2022/11/25 04:45:17;;;;;;;22.67;6.73;;;6.20;99.90;;;;;;6280303;22;20030;-87
2022/11/25 04:47:43;;;;;;;22.87;6.40;;;6.70;99.90;;;;;;6305765;22;20042;-87
2022/11/25 04:50:17;;;;;;;20.13;5.87;;;7.10;99.90;;;;;;6306638;22;20338;-87
2022/11/25 04:52:43;;;;;;;;;;;6.60;99.90;;;;;;6279865;22;20011;-87
2022/11/25 04:55:09;;;;;;;23.63;5.67;;;8.20;99.90;;;;;;6278802;22;19964;-87
2022/11/25 04:57:52;;;;;;;22.67;5.77;;;8.20;99.90;;;;;;6305992;22;20340;-87
2022/11/25 05:00:18;;;;;;;21.90;6.73;;;6.30;99.90;;;;;;6278507;22;20101;-87
2022/11/25 05:02:44;;;;;;;17.87;5.97;;;6.70;99.90;;;;;;6278212;22;20288;-87
2022/11/25 05:05:10;;;;;;;20.53;6.57;;;6.50;99.90;;;;;;6278118;22;20019;-87
2022/11/25 05:07:36;;;;;;;24.60;6.30;;;5.20;99.90;;;;;;6277673;22;20457;-87
2022/11/25 05:10:01;;;;;;;22.23;5.80;;;6.60;99.90;;;;;;6279046;22;20039;-87
2022/11/25 05:12:28;;;;;;;22.73;6.60;;;7.90;99.90;;;;;;6306364;22;20015;-87
2022/11/25 05:15:00;;;;;;;27.87;6.27;;;6.70;99.90;;;;;;6279737;22;20043;-86
2022/11/25 05:17:35;;;;;;;22.77;6.23;;;6.10;99.90;;;;;;6282190;22;20019;-87
2022/11/25 05:20:10;;;;;;;21.13;6.13;;;6.10;99.90;;;;;;6281125;22;20030;-86
2022/11/25 05:22:48;;;;;;;25.10;6.57;;;5.90;99.90;;;;;;6280722;22;20116;-87
2022/11/25 05:25:25;;;;;;;26.40;6.30;;;8.30;99.90;;;;;;6286479;22;20015;-87
2022/11/25 05:28:00;;;;;;;21.90;6.73;;;6.90;99.90;;;;;;6281183;22;20015;-87
2022/11/25 05:30:35;;;;;;;23.70;6.37;;;6.50;99.90;;;;;;6309065;22;20015;-86
2022/11/25 05:33:06;;;;;;;25.07;6.77;;;8.50;99.90;;;;;;6309249;22;20089;-87
2022/11/25 05:36:12;;;;;;;20.23;6.60;;;6.60;99.90;;;;;;6279598;22;20094;-87
2022/11/25 05:38:55;;;;;;;21.00;6.40;;;7.00;99.90;;;;;;6281254;22;20090;-87
2022/11/25 05:41:27;;;;;;;26.23;7.07;;;8.30;99.90;;;;;;6281054;22;20026;-87
2022/11/25 05:44:05;;;;;;;22.90;7.27;;;6.90;99.90;;;;;;6280230;22;20023;-87
2022/11/25 05:46:31;;;;;;;24.10;7.23;;;6.90;99.90;;;;;;6313748;22;20019;-87
2022/11/25 05:49:00;;;;;;;24.37;7.17;;;8.00;99.90;;;;;;6281647;22;20378;-87
2022/11/25 05:51:38;;;;;;;24.80;7.30;;;7.60;99.90;;;;;;6308051;22;20073;-87
2022/11/25 05:54:16;;;;;;;28.10;7.63;;;7.80;99.90;;;;;;6287246;22;20015;-87
2022/11/25 05:56:41;;;;;;;27.60;8.07;;;7.10;99.90;;;;;;6280624;22;20019;-88
2022/11/25 05:59:19;;;;;;;29.57;7.87;;;8.20;99.90;;;;;;6281377;22;20023;-88
2022/11/25 06:01:56;;;;;;;26.50;7.90;;;6.70;99.90;;;;;;6308540;22;20385;-88
2022/11/25 06:04:43;;;;;;;26.03;8.03;;;6.70;99.90;;;;;;6308177;22;20011;-88
2022/11/25 06:07:09;;;;;;;27.97;8.77;;;8.00;99.90;;;;;;6281010;22;20028;-88
2022/11/25 06:09:44;;;;;;;28.60;9.23;;;7.90;99.90;;;;;;6280616;22;20018;-88
2022/11/25 06:12:09;;;;;;;22.53;7.80;;;7.40;99.90;;;;;;6280487;22;20316;-88
2022/11/25 06:14:35;;;;;;;26.30;9.03;;;6.70;99.90;;;;;;6279980;22;20027;-87
2022/11/25 06:17:01;;;;;;;29.77;8.93;;;7.00;99.90;;;;;;6308409;22;20015;-87
2022/11/25 06:19:41;;;;;;;25.20;9.20;;;7.00;99.90;;;;;;6279537;22;20102;-88
2022/11/25 06:22:13;;;;;;;33.37;10.17;;;6.80;99.90;;;;;;6308685;22;20020;-87
2022/11/25 06:24:47;;;;;;;30.00;10.87;;;6.50;99.90;;;;;;6279694;22;20016;-87
2022/11/25 06:27:31;;;;;;;25.30;9.30;;;8.60;99.90;;;;;;6307854;22;20015;-88
2022/11/25 06:30:13;;;;;;;;;;;8.00;99.90;;;;;;6281005;22;20091;-87
2022/11/25 06:32:45;;;;;;;29.90;10.40;;;7.50;99.90;;;;;;6279628;22;20298;-88
2022/11/25 06:36:00;;;;;;;25.87;10.27;;;8.50;99.90;;;;;;6307942;22;20385;-87
2022/11/25 06:39:18;;;;;;;32.33;10.70;;;7.20;99.90;;;;;;6306298;22;20061;-84
2022/11/25 06:41:53;;;;;;;32.27;10.20;;;8.50;99.90;;;;;;6306900;22;20412;-85
2022/11/25 06:44:27;;;;;;;25.37;10.30;;;7.70;99.90;;;;;;6280887;22;20012;-84
2022/11/25 06:47:08;;;;;;;28.37;10.60;;;7.10;99.90;;;;;;6279514;22;20121;-86
2022/11/25 06:49:48;;;;;;;30.10;10.27;;;6.90;99.90;;;;;;6306630;22;20090;-85
2022/11/25 06:52:30;;;;;;;31.67;10.77;;;7.30;99.90;;;;;;6280446;22;20033;-84
2022/11/25 06:55:08;;;;;;;26.97;9.70;;;6.50;99.90;;;;;;6280320;22;20116;-84
2022/11/25 06:58:05;;;;;;;;;;;;;;;;;;;;;
2022/11/25 07:01:31;;;;;;;28.60;9.77;;;7.20;99.90;;;;;;6152264;23;20031;-85
2022/11/25 07:04:29;;;;;;;30.20;9.73;;;7.70;99.90;;;;;;6120046;23;20021;-84
2022/11/25 07:07:15;;;;;;;29.83;9.87;;;7.70;99.90;;;;;;6102363;23;20048;-84
2022/11/25 07:10:19;;;;;;;27.13;9.47;;;9.10;99.90;;;;;;6152288;23;20442;-85
2022/11/25 07:12:57;;;;;;;29.60;9.83;;;8.50;99.90;;;;;;6279067;22;20115;-83
2022/11/25 07:19:32;;;;;;;22.20;8.47;;;7.20;99.90;;;;;;6157674;23;20061;-85
2022/11/25 07:22:31;;;;;;;24.43;8.90;;;7.50;99.90;;;;;;6187077;23;20067;-84
2022/11/25 07:25:09;;;;;;;26.17;9.13;;;7.20;99.90;;;;;;6258335;22;20072;-85
2022/11/25 07:27:43;;;;;;;24.83;9.10;;;7.20;99.90;;;;;;6307193;22;20026;-84
2022/11/25 07:30:17;;;;;;;22.93;8.17;;;8.30;99.90;;;;;;6306336;22;20053;-85
2022/11/25 07:32:55;;;;;;;;;;;7.60;99.90;;;;;;6290840;22;20019;-85
2022/11/25 07:35:39;;;;;;;23.23;8.57;;;7.80;99.90;;;;;;6279226;22;19914;-84
2022/11/25 07:38:19;;;;;;;23.23;8.38;;;7.70;99.90;;;;;;6279858;22;20020;-84
2022/11/25 07:41:15;;;;;;;;;;;;;;;;;;;;;
2022/11/25 07:44:18;;;;;;;23.97;7.83;;;7.60;99.90;;;;;;6126455;23;20029;-84
2022/11/25 07:46:56;;;;;;;;;;;;;;;;;;;;;
2022/11/25 07:50:03;;;;;;;27.43;7.93;;;9.30;99.90;;;;;;5998340;23;20054;-84
2022/11/25 07:53:03;;;;;;;21.20;6.73;;;7.80;99.90;;;;;;6065233;23;20021;-85
2022/11/25 07:55:38;;;;;;;22.03;7.23;;;7.60;99.90;;;;;;6093613;23;20529;-84
2022/11/25 07:58:15;;;;;;;21.83;6.80;;;8.40;99.90;;;;;;6128352;23;20086;-84
2022/11/25 08:00:41;;;;;;;17.13;7.07;;;8.30;99.90;;;;;;6128378;23;20017;-85
2022/11/25 08:03:24;;;;;;;26.50;6.90;;;7.70;99.90;;;;;;6151900;23;20028;-85
2022/11/25 08:22:14;;;;;;;20.87;6.80;;;7.30;99.90;;;;;;6182003;23;20017;-84
2022/11/25 08:28:06;;;;;;;19.17;6.40;;;7.90;99.90;;;;;;6157096;23;20480;-85
2022/11/25 08:38:29;;;;;;;20.43;6.80;;;7.00;99.90;;;;;;6216492;23;20425;-85
2022/11/25 08:41:27;;;;;;;;;;;;;;;;;;;;;
2022/11/25 08:44:22;;;;;;;17.20;6.00;;;8.40;99.90;;;;;;6222380;22;20089;-85
2022/11/25 09:04:38;;;;;;;20.37;7.17;;;7.50;99.90;;;;;;6186319;23;20468;-85
2022/11/25 09:07:23;;;;;;;;;;;;;;;;;;;;;
2022/11/25 09:10:29;;;;;;;17.63;6.80;;;7.10;99.90;;;;;;6100941;23;20131;-84
2022/11/25 09:13:04;;;;;;;18.00;7.13;;;8.40;99.90;;;;;;6186647;23;20096;-84
2022/11/25 09:19:11;;;;;;;17.17;7.40;;;7.20;99.90;;;;;;6066457;23;20054;-85
2022/11/25 09:21:57;;;;;;;18.57;7.60;;;9.10;99.90;;;;;;6067038;23;20077;-84
2022/11/25 09:24:38;;;;;;;16.88;7.07;;;7.00;99.90;;;;;;6068623;23;20357;-85
2022/11/25 09:27:19;;;;;;;17.93;7.80;;;8.30;99.90;;;;;;6093961;23;20018;-84
2022/11/25 09:29:53;;;;;;;19.40;7.27;;;9.60;99.90;;;;;;6096078;23;20060;-84
2022/11/25 09:35:46;;;;;;;20.27;9.87;;;9.20;99.90;;;;;;6184817;23;20032;-84
2022/11/25 09:38:17;;;;;;;19.03;8.23;;;9.50;99.90;;;;;;6211605;23;20579;-86
2022/11/25 09:48:35;;;;;;;15.57;7.43;;;8.60;99.90;;;;;;6305630;22;20019;-84
2022/11/25 09:52:19;;;;;;;;;;;;;;;;;;;;;
2022/11/25 09:55:10;;;;;;;21.00;7.57;;;10.00;99.90;;;;;;6280634;22;20031;-85
2022/11/25 10:01:23;;;;;;;14.33;6.47;;;9.30;99.90;;;;;;6279947;22;20321;-84
2022/11/25 10:04:08;;;;;;;16.93;6.87;;;10.40;99.90;;;;;;6279860;22;20090;-84
2022/11/25 10:09:36;;;;;;;18.87;7.60;;;8.40;99.90;;;;;;6278718;22;20020;-84
2022/11/25 10:12:49;;;;;;;15.83;7.60;;;9.40;99.90;;;;;;6308581;22;20019;-84
2022/11/25 10:15:38;;;;;;;18.63;7.63;;;8.40;99.90;;;;;;6226385;22;20019;-83
2022/11/25 10:18:21;;;;;;;15.53;6.70;;;9.00;99.90;;;;;;6279533;22;20379;-84
2022/11/25 10:21:03;;;;;;;14.85;5.88;;;9.40;99.90;;;;;;6307902;22;20023;-85
2022/11/25 10:23:39;;;;;;;16.33;6.68;;;9.00;99.90;;;;;;6279374;22;20015;-84
2022/11/25 10:26:25;;;;;;;15.30;6.73;;;9.70;99.90;;;;;;6280385;22;20090;-83
2022/11/25 10:29:12;;;;;;;18.88;8.50;;;9.30;99.90;;;;;;6308061;22;20019;-83
2022/11/25 10:32:25;;;;;;;16.85;7.40;;;9.30;99.90;;;;;;6283275;22;20019;-82
2022/11/25 10:35:20;;;;;;;12.88;5.72;;;10.50;99.90;;;;;;6281457;22;20019;-83
2022/11/25 10:38:00;;;;;;;13.20;5.72;;;9.70;99.90;;;;;;6307575;22;20019;-83
2022/11/25 10:40:38;;;;;;;15.90;5.50;;;9.00;99.90;;;;;;6315581;22;20015;-83
2022/11/25 10:43:19;;;;;;;17.73;5.47;;;9.30;99.90;;;;;;6281010;22;20011;-84
2022/11/25 10:46:29;;;;;;;14.83;4.70;;;9.70;99.90;;;;;;6309560;22;20016;-84
2022/11/25 10:49:10;;;;;;;18.30;7.27;;;9.60;99.90;;;;;;6308070;22;20011;-84
2022/11/25 10:51:47;;;;;;;17.03;4.53;;;10.80;99.90;;;;;;6279014;22;20050;-84
2022/11/25 10:54:31;;;;;;;16.77;5.80;;;10.20;99.90;;;;;;6284227;22;20015;-84
2022/11/25 10:57:19;;;;;;;19.08;7.95;;;10.20;99.90;;;;;;6307736;22;20015;-83
2022/11/25 11:00:40;;;;;;;17.50;6.23;;;9.90;99.90;;;;;;6307003;22;20011;-83
2022/11/25 11:03:25;;;;;;;12.98;4.43;;;9.30;99.90;;;;;;6279634;22;20022;-82
2022/11/25 11:06:34;;;;;;;15.18;5.65;;;10.70;99.90;;;;;;6306399;22;20036;-82
2022/11/25 11:09:01;;;;;;;15.23;4.43;;;10.00;99.90;;;;;;6279979;22;20015;-83
2022/11/25 11:11:27;;;;;;;15.10;4.20;;;10.20;99.90;;;;;;6279314;22;20042;-82
2022/11/25 11:14:12;;;;;;;15.07;6.07;;;10.20;99.90;;;;;;6306513;22;20044;-82
2022/11/25 11:16:44;;;;;;;12.73;4.60;;;10.20;99.90;;;;;;6307263;22;20149;-82
2022/11/25 11:19:25;;;;;;;17.30;5.50;;;10.30;99.90;;;;;;6307662;22;20137;-82
2022/11/25 11:21:51;;;;;;;13.52;4.82;;;10.30;99.90;;;;;;6306408;22;20339;-82
2022/11/25 11:24:23;;;;;;;19.10;8.85;;;10.30;99.90;;;;;;6279716;22;20091;-82
2022/11/25 11:27:02;;;;;;;15.27;6.82;;;10.30;99.90;;;;;;6306244;22;20050;-82
2022/11/25 11:29:28;;;;;;;29.10;10.32;;;10.30;99.90;;;;;;6279282;22;20034;-82
2022/11/25 11:32:00;;;;;;;21.15;8.55;;;10.30;99.90;;;;;;6279603;22;20026;-82
2022/11/25 11:34:32;;;;;;;24.35;9.15;;;11.70;99.90;;;;;;6305083;22;20015;-84
2022/11/25 11:37:35;;;;;;;22.65;8.65;;;10.50;99.90;;;;;;6279258;22;20094;-84
2022/11/25 11:40:25;;;;;;;22.40;9.93;;;10.50;99.90;;;;;;6307821;22;20015;-85
2022/11/25 11:43:19;;;;;;;28.00;9.95;;;10.50;99.90;;;;;;6278011;22;20019;-84
2022/11/25 11:48:38;;;;;;;26.40;8.05;;;10.60;99.90;;;;;;6306140;22;20019;-84
2022/11/25 11:51:44;;;;;;;13.68;3.88;;;10.30;99.90;;;;;;6279696;22;20019;-84
2022/11/25 11:55:00;;;;;;;14.10;4.15;;;10.60;99.90;;;;;;6306133;22;20019;-85
2022/11/25 11:57:53;;;;;;;13.32;4.05;;;10.50;99.90;;;;;;6280023;22;20461;-83
2022/11/25 12:00:56;;;;;;;15.48;3.72;;;10.50;99.90;;;;;;6279897;22;20094;-83
2022/11/25 12:03:43;;;;;;;13.13;4.10;;;10.50;99.90;;;;;;6283192;22;20077;-83
2022/11/25 12:06:30;;;;;;;14.52;3.97;;;12.20;99.90;;;;;;6280672;22;20019;-85
2022/11/25 12:09:07;;;;;;;13.40;3.85;;;11.30;99.90;;;;;;6279130;22;20381;-86
2022/11/25 12:11:54;;;;;;;12.85;3.75;;;10.70;99.90;;;;;;6284711;22;20435;-87
2022/11/25 12:15:04;;;;;;;11.07;3.22;;;10.30;99.90;;;;;;6307607;22;20047;-85
2022/11/25 12:18:45;;;;;;;13.07;4.70;;;10.50;99.90;;;;;;6305751;22;20019;-83
2022/11/25 12:21:18;;;;;;;15.90;4.75;;;10.80;99.90;;;;;;6254258;22;20026;-83
2022/11/25 12:24:03;;;;;;;13.43;3.28;;;11.60;99.90;;;;;;6304621;22;20046;-83
2022/11/25 12:26:38;;;;;;;12.07;3.55;;;10.60;99.90;;;;;;6305475;22;20066;-83
2022/11/25 12:29:24;;;;;;;13.77;3.80;;;10.80;99.90;;;;;;6278568;22;20452;-83
2022/11/25 12:31:57;;;;;;;12.57;3.40;;;11.70;99.90;;;;;;6302325;22;20094;-83
2022/11/25 12:34:34;;;;;;;9.88;2.80;;;10.80;99.90;;;;;;6308868;22;20015;-84
2022/11/25 12:37:32;;;;;;;14.85;3.72;;;10.70;99.90;;;;;;6305702;22;20019;-83
2022/11/25 12:40:06;;;;;;;12.43;3.33;;;11.50;99.90;;;;;;6256149;22;20015;-82
2022/11/25 12:42:35;;;;;;;10.57;3.28;;;10.60;99.90;;;;;;6280140;22;20098;-85
2022/11/25 12:45:03;;;;;;;14.45;3.45;;;11.00;99.90;;;;;;6305538;22;20332;-85
2022/11/25 12:47:29;;;;;;;34.00;20.02;;;10.60;99.90;;;;;;6306022;22;20036;-83
2022/11/25 12:49:56;;;;;;;18.70;9.15;;;10.60;99.90;;;;;;6307491;22;20094;-85
2022/11/25 12:53:00;;;;;;;14.30;4.97;;;10.70;99.90;;;;;;6278785;22;20020;-84
2022/11/25 12:55:27;;;;;;;17.60;9.02;;;10.80;99.90;;;;;;6307196;22;20109;-84
2022/11/25 12:58:28;;;;;;;13.40;4.15;;;11.40;99.90;;;;;;6279815;22;20011;-84
2022/11/25 13:01:06;;;;;;;12.30;3.50;;;10.80;99.90;;;;;;6279817;22;20015;-85
2022/11/25 13:04:08;;;;;;;12.45;2.90;;;10.80;99.90;;;;;;6306619;22;20015;-85
2022/11/25 13:06:46;;;;;;;16.92;5.95;;;10.80;99.90;;;;;;6277503;22;20070;-84
2022/11/25 13:09:22;;;;;;;15.18;4.07;;;10.90;99.90;;;;;;6279094;22;20094;-83
2022/11/25 13:12:13;;;;;;;14.50;3.85;;;11.00;99.90;;;;;;6305928;22;20014;-83
2022/11/25 13:14:45;;;;;;;15.05;3.63;;;11.00;99.90;;;;;;6278650;22;20098;-83
2022/11/25 13:17:13;;;;;;;13.48;3.60;;;11.10;99.90;;;;;;6278856;22;20064;-83
2022/11/25 13:19:39;;;;;;;13.30;3.70;;;12.10;99.90;;;;;;6277706;22;20045;-83
2022/11/25 13:22:30;;;;;;;13.43;4.00;;;11.20;99.90;;;;;;6278737;22;20008;-85
2022/11/25 13:24:57;;;;;;;15.73;3.50;;;10.90;99.90;;;;;;6306432;22;20038;-84
2022/11/25 13:28:06;;;;;;;15.15;3.40;;;12.20;99.90;;;;;;6278142;22;20037;-83
2022/11/25 13:30:50;;;;;;;15.15;5.00;;;11.10;99.90;;;;;;6278630;22;20015;-84
2022/11/25 13:33:24;;;;;;;15.55;3.90;;;12.50;99.90;;;;;;6303564;22;20007;-84
2022/11/25 13:35:56;;;;;;;14.43;3.63;;;11.60;99.90;;;;;;6283648;22;20015;-84
2022/11/25 13:38:47;;;;;;;14.65;4.00;;;10.30;99.90;;;;;;6309964;22;20319;-82
2022/11/25 13:41:37;;;;;;;16.48;5.03;;;11.20;99.90;;;;;;6279785;22;20016;-83
2022/11/25 13:44:27;;;;;;;15.30;3.67;;;11.20;99.90;;;;;;6285781;22;20022;-84
2022/11/25 13:46:57;;;;;;;13.88;3.95;;;12.40;99.90;;;;;;6306984;22;20041;-83
2022/11/25 13:50:08;;;;;;;13.25;3.47;;;12.70;99.90;;;;;;6306801;22;20030;-85
2022/11/25 13:52:58;;;;;;;15.43;4.97;;;11.10;99.90;;;;;;6279462;22;20042;-85
2022/11/25 13:55:40;;;;;;;16.10;3.90;;;10.60;99.90;;;;;;6278490;22;20030;-84
2022/11/25 13:58:25;;;;;;;16.08;3.90;;;11.90;99.90;;;;;;6307653;22;20011;-85
2022/11/25 14:01:39;;;;;;;15.97;4.20;;;12.00;99.90;;;;;;6306608;22;20011;-86
2022/11/25 14:04:56;;;;;;;14.10;4.00;;;10.60;99.90;;;;;;6134924;22;20024;-84
2022/11/25 14:08:06;;;;;;;16.45;5.05;;;10.60;99.90;;;;;;6242520;22;20327;-84
2022/11/25 14:10:59;;;;;;;12.98;3.38;;;10.50;99.90;;;;;;6278129;22;20482;-83
2022/11/25 14:20:24;;;;;;;19.05;4.45;;;10.30;99.90;;;;;;6275859;22;20043;-87
2022/11/25 14:31:44;;;;;;;14.98;4.13;;;10.20;99.90;;;;;;6096196;23;20340;-85
2022/11/25 14:48:37;;;;;;;11.93;4.00;;;10.20;99.90;;;;;;6123136;23;20060;-85
2022/11/25 14:51:33;;;;;;;;;;;;;;;;;;;;;
2022/11/25 15:22:19;;;;;;;16.45;4.35;;;9.80;99.90;;;;;;6241711;23;20086;-86
2022/11/25 15:25:07;;;;;;;14.73;4.03;;;9.10;99.90;;;;;;6215054;23;20020;-83
2022/11/25 15:27:49;;;;;;;13.85;4.38;;;10.70;99.90;;;;;;6214036;23;20503;-84
2022/11/25 15:30:35;;;;;;;21.45;4.55;;;11.30;99.90;;;;;;6216013;23;20070;-83
2022/11/25 15:33:16;;;;;;;20.50;5.30;;;8.70;99.90;;;;;;6240285;23;20074;-82
2022/11/25 15:35:56;;;;;;;20.90;6.03;;;9.90;99.90;;;;;;6215083;23;20024;-83
2022/11/25 15:38:45;;;;;;;25.00;9.77;;;9.00;99.90;;;;;;6216201;23;20502;-83
2022/11/25 15:41:28;;;;;;;20.98;6.75;;;10.40;99.90;;;;;;6222215;22;20050;-83
2022/11/25 15:44:14;;;;;;;20.58;7.15;;;9.30;99.90;;;;;;6337214;22;20014;-83
2022/11/25 15:46:56;;;;;;;21.23;6.03;;;10.00;99.90;;;;;;6309192;22;20019;-83
2022/11/25 15:49:33;;;;;;;20.45;6.88;;;9.10;99.90;;;;;;6309562;22;20097;-83
2022/11/25 15:52:19;;;;;;;21.67;6.07;;;9.90;99.90;;;;;;6309990;22;20010;-84
2022/11/25 15:55:31;;;;;;;18.38;6.00;;;8.70;99.90;;;;;;6335325;22;20033;-83
2022/11/25 15:58:21;;;;;;;20.80;7.18;;;8.90;99.90;;;;;;6336677;22;20026;-84
2022/11/25 16:01:14;;;;;;;19.63;6.97;;;9.20;99.90;;;;;;6308728;22;20023;-83
2022/11/25 16:04:31;;;;;;;16.67;6.23;;;8.10;99.90;;;;;;6308583;22;20495;-85
2022/11/25 16:07:35;;;;;;;22.05;10.25;;;8.80;99.90;;;;;;6337076;22;20344;-84
2022/11/25 16:10:40;;;;;;;20.90;9.40;;;9.40;99.90;;;;;;6308512;22;20018;-84
2022/11/25 16:13:29;;;;;;;20.77;6.85;;;9.10;99.90;;;;;;6307804;22;20027;-84
2022/11/25 16:16:47;;;;;;;23.00;10.40;;;8.90;99.90;;;;;;6282173;22;20106;-84